Time;durP1;ratioP1;P1;durP2;ratioP2;P2;SDS_P1;SDS_P2;PMS_P1;PMS_P2;Temp;Humidity;BMP_temperature;BMP_pressure;BME280_temperature;BME280_humidity;BME280_pressure;Samples;Min_cycle;Max_cycle;Signal;HPM_P1;HPM_P2
2023/01/02 00:02:23;;;;;;;1.27;0.25;;;;;;;15.01;33.95;101054.09;4973055;28;20031;-64
2023/01/02 00:04:49;;;;;;;5.63;0.80;;;;;;;14.96;34.71;101072.81;4973156;28;20031;-64
2023/01/02 00:07:15;;;;;;;1.02;0.20;;;;;;;14.93;34.19;101067.88;4973138;28;20029;-64
2023/01/02 00:09:42;;;;;;;2.67;0.20;;;;;;;14.80;34.15;101065.38;4972984;28;20189;-64
2023/01/02 00:12:08;;;;;;;0.10;0.10;;;;;;;14.54;35.89;101058.44;4971918;28;20520;-64
2023/01/02 00:14:34;;;;;;;0.15;0.10;;;;;;;14.55;34.64;101056.56;4972770;28;20066;-64
2023/01/02 00:17:01;;;;;;;0.10;0.10;;;;;;;14.67;34.39;101065.56;4972896;28;20106;-64
2023/01/02 00:19:27;;;;;;;0.15;0.13;;;;;;;14.65;34.01;101065.75;4972924;28;20389;-64
2023/01/02 00:21:53;;;;;;;0.40;0.30;;;;;;;14.50;35.22;101055.41;4973131;28;20050;-64
2023/01/02 00:24:19;;;;;;;1.30;0.20;;;;;;;14.47;35.41;101061.22;4972837;28;20392;-64
2023/01/02 00:26:46;;;;;;;0.82;0.22;;;;;;;14.43;35.44;101051.94;4991007;28;20054;-64
2023/01/02 00:29:12;;;;;;;0.38;0.20;;;;;;;14.36;35.81;101053.06;4992430;28;20153;-63
2023/01/02 00:31:38;;;;;;;0.20;0.10;;;;;;;14.33;35.68;101046.28;4992313;28;20168;-64
2023/01/02 00:34:04;;;;;;;0.17;0.17;;;;;;;14.23;35.82;101043.28;4993466;28;20088;-63
2023/01/02 00:36:31;;;;;;;0.40;0.25;;;;;;;14.19;35.70;101047.47;4994479;28;20441;-63
2023/01/02 00:38:57;;;;;;;1.00;0.40;;;;;;;14.06;35.27;101051.13;4994594;28;20034;-63
2023/01/02 00:41:24;;;;;;;0.68;0.40;;;;;;;13.98;35.48;101060.31;4993921;28;20162;-63
2023/01/02 00:43:50;;;;;;;0.63;0.20;;;;;;;14.04;34.61;101065.84;4993218;28;20025;-64
2023/01/02 00:46:17;;;;;;;0.68;0.30;;;;;;;13.95;34.56;101066.16;4986055;28;20031;-63
2023/01/02 00:48:44;;;;;;;0.13;0.10;;;;;;;13.89;34.77;101067.03;5006610;28;20041;-64
2023/01/02 00:51:10;;;;;;;1.33;0.20;;;;;;;13.96;34.05;101062.41;5012026;28;20018;-64
2023/01/02 00:53:36;;;;;;;0.65;0.40;;;;;;;13.83;35.39;101064.44;5002369;28;20031;-63
2023/01/02 00:56:03;;;;;;;0.40;0.30;;;;;;;13.80;35.86;101067.53;5001511;28;20125;-63
2023/01/02 00:58:29;;;;;;;0.20;0.13;;;;;;;13.71;35.66;101075.91;4999019;28;20030;-63
2023/01/02 01:00:55;;;;;;;0.17;0.17;;;;;;;13.56;35.98;101077.28;5013538;28;20022;-64
2023/01/02 01:03:21;;;;;;;0.55;0.20;;;;;;;13.54;35.88;101082.88;5015947;28;20017;-63
2023/01/02 01:05:48;;;;;;;0.30;0.10;;;;;;;13.48;35.30;101097.19;5009551;28;20027;-63
2023/01/02 01:08:14;;;;;;;0.32;0.20;;;;;;;13.44;35.68;101107.56;4996210;28;20414;-64
2023/01/02 01:10:40;;;;;;;0.10;0.10;;;;;;;13.35;35.89;101111.56;4996182;28;20018;-64
2023/01/02 01:13:07;;;;;;;0.28;0.20;;;;;;;13.38;36.11;101119.22;4996203;28;20058;-63
2023/01/02 01:15:34;;;;;;;0.38;0.25;;;;;;;13.33;37.02;101118.22;5003956;28;20022;-63
2023/01/02 01:18:00;;;;;;;1.08;0.20;;;;;;;13.30;38.20;101118.63;5015025;28;20022;-63
2023/01/02 01:20:26;;;;;;;0.13;0.10;;;;;;;13.19;39.18;101130.88;5014936;28;20108;-63
2023/01/02 01:22:53;;;;;;;0.40;0.22;;;;;;;13.10;40.09;101135.69;5015073;28;20418;-63
2023/01/02 01:25:19;;;;;;;1.55;0.47;;;;;;;12.86;42.02;101147.97;5015189;28;20546;-62
2023/01/02 01:27:45;;;;;;;0.57;0.10;;;;;;;12.81;42.17;101149.66;5015349;28;20033;-62
2023/01/02 01:30:12;;;;;;;0.20;0.20;;;;;;;12.76;42.81;101157.53;5009494;28;20113;-63
2023/01/02 01:32:38;;;;;;;2.95;0.70;;;;;;;12.73;43.20;101161.47;4995723;28;20022;-62
2023/01/02 01:35:05;;;;;;;0.82;0.60;;;;;;;12.55;43.49;101161.34;5002258;28;20480;-62
2023/01/02 01:37:31;;;;;;;1.08;0.50;;;;;;;12.53;43.70;101166.06;5002095;28;20480;-62
2023/01/02 01:39:57;;;;;;;1.20;0.40;;;;;;;12.41;44.40;101173.97;4995443;28;20030;-63
2023/01/02 01:42:24;;;;;;;1.15;0.52;;;;;;;12.47;44.47;101166.91;4995392;28;20022;-62
2023/01/02 01:44:52;;;;;;;2.78;0.60;;;;;;;12.59;44.90;101173.28;4996027;28;20101;-62
2023/01/02 01:47:35;;;;;;;1.73;1.13;;;;;;;12.50;45.24;101170.03;5015005;28;20241;-63
2023/01/02 01:50:07;;;;;;;2.03;0.63;;;;;;;12.34;46.69;101187.41;5014497;28;20025;-63
2023/01/02 01:52:37;;;;;;;1.33;0.52;;;;;;;12.35;47.98;101185.53;5014850;28;20037;-63
2023/01/02 01:55:34;;;;;;;2.45;0.98;;;;;;;12.32;47.23;101181.38;5014396;28;20488;-63
2023/01/02 01:58:07;;;;;;;5.20;1.30;;;;;;;12.32;46.49;101181.38;4987662;28;20477;-62
2023/01/02 02:00:33;;;;;;;2.08;1.17;;;;;;;12.21;45.07;101187.41;5013613;28;20113;-62
2023/01/02 02:03:05;;;;;;;2.70;0.63;;;;;;;12.19;45.24;101181.41;5014607;28;20543;-62
2023/01/02 02:05:32;;;;;;;1.50;0.88;;;;;;;12.31;44.95;101179.75;5014263;28;20111;-63
2023/01/02 02:08:25;;;;;;;1.92;0.70;;;;;;;12.32;45.40;101181.38;5004295;28;20071;-62
2023/01/02 02:10:54;;;;;;;3.13;0.88;;;;;;;12.09;47.65;101179.16;5004532;28;20029;-62
2023/01/02 02:13:20;;;;;;;3.72;1.35;;;;;;;12.20;47.08;101185.75;5007501;28;20045;-63
2023/01/02 02:16:16;;;;;;;1.02;0.70;;;;;;;11.95;43.35;101179.38;5011203;28;20048;-62
2023/01/02 02:19:24;;;;;;;1.73;0.50;;;;;;;12.10;39.62;101185.34;4927438;28;20042;-63
2023/01/02 02:21:53;;;;;;;0.85;0.43;;;;;;;12.01;38.95;101170.50;5011890;28;20465;-62
2023/01/02 02:24:33;;;;;;;1.30;0.30;;;;;;;11.93;38.98;101166.16;4999530;28;20045;-60
2023/01/02 02:27:28;;;;;;;0.20;0.20;;;;;;;12.06;37.80;101168.03;5003473;28;20477;-62
2023/01/02 02:30:28;;;;;;;1.08;0.40;;;;;;;12.01;38.11;101182.06;5014296;28;20036;-62
2023/01/02 02:33:06;;;;;;;0.70;0.32;;;;;;;11.94;39.71;101183.06;5014381;28;20053;-62
2023/01/02 02:35:59;;;;;;;1.13;0.30;;;;;;;11.67;41.42;101192.97;5012849;28;20025;-62
2023/01/02 02:38:44;;;;;;;0.73;0.35;;;;;;;11.62;42.46;101189.03;4963848;28;20034;-62
2023/01/02 02:41:31;;;;;;;1.00;0.30;;;;;;;11.57;43.41;101187.97;4999999;28;20103;-62
2023/01/02 02:44:00;;;;;;;0.45;0.30;;;;;;;11.66;44.52;101184.09;5014506;28;20033;-62
2023/01/02 02:46:37;;;;;;;1.40;0.32;;;;;;;11.56;44.27;101181.81;5013195;28;20017;-62
2023/01/02 02:49:07;;;;;;;1.00;0.20;;;;;;;11.80;43.85;101188.41;5013004;28;20018;-62
2023/01/02 02:51:52;;;;;;;1.55;0.50;;;;;;;11.76;41.47;101199.75;5013702;28;20529;-62
2023/01/02 02:54:51;;;;;;;0.93;0.50;;;;;;;11.65;42.69;101190.47;5013768;28;20033;-62
2023/01/02 02:57:19;;;;;;;2.15;0.80;;;;;;;11.52;43.10;101199.31;5013539;28;20057;-62
2023/01/02 02:59:45;;;;;;;1.05;0.50;;;;;;;11.63;42.05;101195.22;5013578;28;20042;-62
2023/01/02 03:02:16;;;;;;;1.00;0.70;;;;;;;11.54;41.79;101193.75;5014631;28;20101;-62
2023/01/02 03:04:52;;;;;;;1.15;0.52;;;;;;;11.60;41.90;101190.25;5002539;28;20108;-63
2023/01/02 03:07:52;;;;;;;1.45;0.70;;;;;;;11.50;42.68;101197.88;5003517;28;20514;-62
2023/01/02 03:10:46;;;;;;;0.63;0.43;;;;;;;11.43;42.93;101194.34;5003888;28;20042;-63
2023/01/02 03:13:27;;;;;;;2.00;0.70;;;;;;;11.12;44.02;101192.19;5006386;28;20042;-62
2023/01/02 03:16:17;;;;;;;1.55;0.70;;;;;;;11.02;45.03;101192.56;4993480;28;20546;-62
2023/01/02 03:19:04;;;;;;;2.67;0.85;;;;;;;11.24;43.42;101190.59;4993898;28;20030;-63
2023/01/02 03:21:49;;;;;;;1.92;1.10;;;;;;;11.29;43.01;101191.63;4993782;28;20117;-62
2023/01/02 03:24:18;;;;;;;1.15;0.65;;;;;;;11.15;43.17;101192.59;5008746;28;20030;-62
2023/01/02 03:26:52;;;;;;;1.65;0.80;;;;;;;10.88;44.55;101196.22;5011960;28;20057;-63
2023/01/02 03:29:33;;;;;;;1.33;0.82;;;;;;;10.91;44.62;101193.16;5012605;28;20032;-63
2023/01/02 03:32:01;;;;;;;1.38;1.10;;;;;;;10.69;44.57;101187.06;5012446;28;20072;-63
2023/01/02 03:34:31;;;;;;;2.10;1.42;;;;;;;10.68;45.53;101185.41;5012736;28;20526;-63
2023/01/02 03:37:13;;;;;;;2.63;1.55;;;;;;;10.50;46.24;101189.44;5012275;28;20121;-63
2023/01/02 03:39:47;;;;;;;2.28;1.67;;;;;;;10.63;46.23;101177.16;5012410;28;20080;-63
2023/01/02 03:42:27;;;;;;;1.73;1.10;;;;;;;10.47;46.84;101178.28;5012390;28;20120;-63
2023/01/02 03:45:14;;;;;;;2.45;1.00;;;;;;;10.44;47.29;101181.38;5012440;28;20022;-63
2023/01/02 03:47:48;;;;;;;2.38;1.55;;;;;;;10.30;49.28;101188.47;4992654;28;20053;-63
2023/01/02 03:50:24;;;;;;;3.03;1.30;;;;;;;10.09;47.66;101196.53;4992299;28;20037;-64
2023/01/02 03:52:50;;;;;;;3.60;1.40;;;;;;;10.30;47.89;101194.66;4991932;28;20034;-63
2023/01/02 03:55:17;;;;;;;1.60;1.10;;;;;;;10.27;48.14;101192.38;4992076;28;20065;-63
2023/01/02 03:58:18;;;;;;;1.95;1.20;;;;;;;10.21;48.81;101197.63;4999037;28;20022;-63
2023/01/02 04:01:03;;;;;;;1.70;1.35;;;;;;;9.95;49.61;101192.94;4981272;28;20042;-63
2023/01/02 04:03:57;;;;;;;1.90;1.15;;;;;;;9.99;49.83;101186.16;4992439;28;20026;-62
2023/01/02 04:06:33;;;;;;;2.50;0.90;;;;;;;9.90;49.57;101182.81;4986123;28;20531;-63
2023/01/02 04:09:13;;;;;;;1.70;1.38;;;;;;;9.81;49.42;101181.28;4992291;28;20031;-62
2023/01/02 04:11:45;;;;;;;1.98;1.10;;;;;;;9.86;48.87;101175.34;4992049;28;20034;-62
2023/01/02 04:14:20;;;;;;;1.10;0.80;;;;;;;9.82;47.05;101179.44;4992048;28;20049;-62
2023/01/02 04:16:49;;;;;;;1.43;1.00;;;;;;;9.83;47.62;101175.72;5010718;28;20449;-62
2023/01/02 04:19:22;;;;;;;2.80;0.90;;;;;;;9.72;46.29;101183.28;5011038;28;20173;-63
2023/01/02 04:21:52;;;;;;;1.02;0.85;;;;;;;9.77;47.28;101186.19;5011127;28;20488;-63
2023/01/02 04:27:25;;;;;;;1.90;1.02;;;;;;;9.60;46.38;101174.09;5109308;27;20977;-62
2023/01/02 04:29:52;;;;;;;2.70;1.10;;;;;;;9.65;46.83;101177.03;5109412;28;20114;-62
2023/01/02 04:32:30;;;;;;;1.52;0.93;;;;;;;9.83;45.59;101181.06;5099111;28;20047;-62
2023/01/02 04:34:57;;;;;;;2.90;1.30;;;;;;;9.87;47.74;101193.06;5103130;28;20422;-61
2023/01/02 04:37:32;;;;;;;2.20;1.40;;;;;;;9.77;47.83;101196.91;5106166;28;20020;-61
2023/01/02 04:40:07;;;;;;;2.20;1.38;;;;;;;9.81;47.81;101201.84;5104849;28;20024;-61
2023/01/02 04:42:33;;;;;;;2.25;1.73;;;;;;;9.72;48.48;101204.66;5109700;28;20036;-61
2023/01/02 04:44:59;;;;;;;2.13;1.70;;;;;;;9.65;48.28;101217.13;5109297;28;20088;-61
2023/01/02 04:47:26;;;;;;;1.52;1.20;;;;;;;9.35;48.91;101221.75;5109826;28;20036;-62
2023/01/02 04:49:52;;;;;;;3.05;1.30;;;;;;;9.06;49.25;101227.97;5109565;28;20097;-62
2023/01/02 04:52:18;;;;;;;2.25;1.75;;;;;;;8.73;50.88;101238.22;5108241;28;20078;-61
2023/01/02 04:54:44;;;;;;;2.05;1.20;;;;;;;8.85;49.91;101235.91;5109248;28;20527;-61
2023/01/02 04:57:11;;;;;;;1.80;1.17;;;;;;;9.00;49.82;101236.75;5109441;28;20027;-61
2023/01/02 04:59:37;;;;;;;1.65;1.10;;;;;;;8.99;50.09;101227.06;5109497;28;20027;-61
2023/01/02 05:02:03;;;;;;;1.42;1.13;;;;;;;9.11;50.82;101225.59;5109541;28;20052;-62
2023/01/02 05:04:30;;;;;;;1.55;0.82;;;;;;;9.07;50.96;101234.16;5108939;28;20111;-62
2023/01/02 05:06:56;;;;;;;1.10;1.00;;;;;;;9.06;51.38;101233.31;5109235;28;20172;-62
2023/01/02 05:09:22;;;;;;;1.73;1.00;;;;;;;9.12;51.84;101239.75;5109377;28;20110;-62
2023/01/02 05:11:48;;;;;;;1.38;1.00;;;;;;;9.16;52.45;101217.84;5109359;28;20028;-63
2023/01/02 05:14:15;;;;;;;1.77;1.02;;;;;;;9.13;52.20;101228.88;5107914;28;20024;-62
2023/01/02 05:16:41;;;;;;;3.30;1.40;;;;;;;9.12;51.54;101232.56;5108583;28;20055;-62
2023/01/02 05:19:07;;;;;;;2.45;1.08;;;;;;;9.06;51.18;101230.66;5087669;28;20137;-62
2023/01/02 05:24:18;;;;;;;2.08;0.90;;;;;;;9.15;51.19;101248.22;5088434;28;20035;-63
2023/01/02 05:26:44;;;;;;;1.55;0.98;;;;;;;8.89;52.51;101245.22;5087887;28;20063;-59
2023/01/02 05:29:10;;;;;;;1.55;0.90;;;;;;;9.20;50.35;101235.13;5088054;28;20052;-61
2023/01/02 05:31:40;;;;;;;1.17;0.98;;;;;;;8.95;51.86;101236.47;5088557;28;20024;-62
2023/01/02 05:34:06;;;;;;;0.90;0.73;;;;;;;8.94;50.83;101232.16;5096644;28;20473;-61
2023/01/02 05:36:32;;;;;;;1.15;1.05;;;;;;;8.84;51.53;101228.94;5092022;28;20032;-62
2023/01/02 05:39:00;;;;;;;1.95;0.98;;;;;;;8.88;51.87;101217.69;5076520;28;20173;-62
2023/01/02 05:41:26;;;;;;;1.27;1.02;;;;;;;8.88;52.22;101220.38;5077636;28;20077;-61
2023/01/02 05:43:54;;;;;;;0.98;0.90;;;;;;;8.91;52.48;101216.50;5094855;28;20106;-62
2023/01/02 05:46:20;;;;;;;3.15;1.40;;;;;;;8.98;52.99;101217.38;5094170;28;20030;-62
2023/01/02 05:48:47;;;;;;;1.45;1.00;;;;;;;8.99;53.23;101225.22;5094236;28;20016;-63
2023/01/02 05:51:16;;;;;;;2.30;1.13;;;;;;;8.93;52.94;101233.97;5094766;28;20020;-63
2023/01/02 05:53:42;;;;;;;1.33;1.10;;;;;;;9.06;50.30;101233.31;5094807;28;20035;-61
2023/01/02 05:56:15;;;;;;;1.30;1.20;;;;;;;9.19;49.56;101220.13;5093882;28;20031;-61
2023/01/02 05:58:44;;;;;;;2.58;1.48;;;;;;;9.36;48.78;101215.38;5093447;28;20031;-61
2023/01/02 06:01:15;;;;;;;2.75;1.73;;;;;;;8.88;50.70;101207.03;5094403;28;20474;-62
2023/01/02 06:03:50;;;;;;;2.60;2.05;;;;;;;8.61;52.11;101197.81;5094660;28;20032;-61
2023/01/02 06:06:18;;;;;;;2.58;2.25;;;;;;;8.51;52.82;101191.94;5092913;28;20028;-61
2023/01/02 06:08:44;;;;;;;3.55;2.30;;;;;;;8.58;52.21;101179.50;5093537;28;20040;-61
2023/01/02 06:11:11;;;;;;;7.45;2.00;;;;;;;8.60;53.49;101168.63;5094501;28;20192;-61
2023/01/02 06:13:38;;;;;;;3.58;2.15;;;;;;;8.57;52.15;101164.50;5093106;28;20073;-61
2023/01/02 06:16:06;;;;;;;2.40;1.48;;;;;;;8.59;51.96;101169.66;5078143;28;20029;-61
2023/01/02 06:18:34;;;;;;;3.55;1.80;;;;;;;8.58;51.54;101182.19;5073721;28;20485;-62
2023/01/02 06:21:12;;;;;;;1.35;0.90;;;;;;;8.88;47.51;101171.47;5073798;28;20377;-62
2023/01/02 06:23:39;;;;;;;0.98;0.80;;;;;;;8.82;46.12;101164.19;5073878;28;20036;-62
2023/01/02 06:26:19;;;;;;;0.68;0.68;;;;;;;8.94;45.84;101163.56;5073179;28;20056;-61
2023/01/02 06:28:49;;;;;;;1.30;0.63;;;;;;;9.38;44.56;101167.09;5073828;28;20444;-61
2023/01/02 06:31:18;;;;;;;0.70;0.60;;;;;;;9.25;44.71;101168.63;5073819;28;20485;-62
2023/01/02 06:33:44;;;;;;;4.15;0.82;;;;;;;9.39;45.41;101168.78;5073873;28;20420;-60
2023/01/02 06:36:16;;;;;;;1.15;0.68;;;;;;;9.60;44.47;101176.75;5073455;28;20073;-60
2023/01/02 06:38:44;;;;;;;2.60;1.80;;;;;;;9.71;46.47;101188.78;5072848;28;20028;-60
2023/01/02 06:41:11;;;;;;;4.45;2.63;;;;;;;9.66;47.65;101185.88;5076252;28;20127;-61
2023/01/02 06:43:43;;;;;;;6.68;3.22;;;;;;;9.65;48.48;101195.72;5073889;28;20048;-61
2023/01/02 06:46:11;;;;;;;4.82;2.95;;;;;;;9.50;49.49;101203.00;5073852;28;20392;-61
2023/01/02 06:48:38;;;;;;;4.25;2.95;;;;;;;9.46;49.99;101212.41;5072600;28;20025;-61
2023/01/02 06:51:05;;;;;;;4.55;2.80;;;;;;;9.33;50.76;101206.91;5092599;28;20070;-60
2023/01/02 06:53:37;;;;;;;3.42;2.50;;;;;;;8.99;51.67;101206.53;5093819;28;20063;-61
2023/01/02 06:56:04;;;;;;;4.43;2.40;;;;;;;8.87;52.72;101199.19;5093290;28;20111;-62
2023/01/02 06:58:32;;;;;;;3.25;1.92;;;;;;;8.65;53.45;101198.28;5092552;28;20070;-62
2023/01/02 07:01:22;;;;;;;4.28;2.17;;;;;;;8.01;56.51;101195.25;5093019;28;20036;-62
2023/01/02 07:03:49;;;;;;;2.92;1.90;;;;;;;8.10;57.24;101184.31;5092840;28;20051;-62
2023/01/02 07:06:18;;;;;;;3.25;1.73;;;;;;;8.50;55.94;101187.63;5092228;28;20036;-62
2023/01/02 07:08:44;;;;;;;4.85;2.15;;;;;;;8.55;55.57;101189.72;5093337;28;20028;-62
2023/01/02 07:11:16;;;;;;;3.72;1.55;;;;;;;8.50;55.55;101198.28;5091963;28;20130;-62
2023/01/02 07:13:44;;;;;;;3.72;2.10;;;;;;;8.39;56.35;101193.41;5077054;28;20435;-62
2023/01/02 07:16:13;;;;;;;3.72;1.77;;;;;;;8.39;56.00;101183.56;5072052;28;20025;-62
2023/01/02 07:18:40;;;;;;;3.03;1.60;;;;;;;8.38;56.25;101192.59;5072356;28;20515;-62
2023/01/02 07:21:08;;;;;;;1.95;1.60;;;;;;;8.30;56.52;101176.63;5071294;28;20033;-62
2023/01/02 07:23:34;;;;;;;1.95;1.60;;;;;;;8.50;55.90;101173.44;5081863;28;20028;-62
2023/01/02 07:26:03;;;;;;;1.63;1.35;;;;;;;8.32;56.19;101169.25;5092367;28;20090;-62
2023/01/02 07:28:29;;;;;;;2.30;1.80;;;;;;;8.43;55.90;101165.34;5092778;28;20020;-63
2023/01/02 07:30:57;;;;;;;3.60;1.60;;;;;;;8.24;56.42;101171.19;5085798;28;20350;-62
2023/01/02 07:33:25;;;;;;;2.25;1.48;;;;;;;8.10;53.96;101160.31;5071123;28;20464;-62
2023/01/02 07:35:51;;;;;;;1.50;1.05;;;;;;;8.27;53.02;101165.47;5070812;28;20025;-60
2023/01/02 07:38:17;;;;;;;2.08;1.10;;;;;;;8.35;54.16;101170.75;5075449;28;20107;-60
2023/01/02 07:40:43;;;;;;;1.58;1.05;;;;;;;8.30;54.96;101175.78;5072330;28;20407;-62
2023/01/02 07:43:10;;;;;;;3.03;1.40;;;;;;;8.18;56.66;101194.06;5072481;28;20032;-62
2023/01/02 07:45:36;;;;;;;3.47;1.65;;;;;;;8.07;57.87;101200.69;5072093;28;20036;-62
2023/01/02 07:48:02;;;;;;;1.70;1.40;;;;;;;7.99;59.25;101218.56;5072369;28;20048;-62
2023/01/02 07:50:28;;;;;;;4.05;1.30;;;;;;;7.98;59.29;101228.41;5072506;28;20020;-61
2023/01/02 07:52:55;;;;;;;1.83;1.15;;;;;;;7.78;59.70;101232.59;5072339;28;20031;-61
2023/01/02 07:55:21;;;;;;;1.65;1.42;;;;;;;7.75;60.03;101238.25;5071952;28;20029;-61
2023/01/02 07:57:48;;;;;;;1.75;1.02;;;;;;;7.63;60.22;101232.50;5072462;28;20074;-61
2023/01/02 08:00:15;;;;;;;1.73;1.20;;;;;;;7.77;59.81;101231.72;5082511;28;20020;-61
2023/01/02 08:02:42;;;;;;;2.22;1.27;;;;;;;7.72;60.08;101249.25;5092307;28;20469;-61
2023/01/02 08:05:08;;;;;;;1.25;1.13;;;;;;;7.62;60.37;101249.50;5092088;28;20024;-61
2023/01/02 08:07:34;;;;;;;1.90;1.10;;;;;;;7.54;60.52;101244.22;5092274;28;20024;-61
2023/01/02 08:10:00;;;;;;;1.45;1.10;;;;;;;7.06;63.01;101228.34;5087903;28;20566;-61
2023/01/02 08:12:27;;;;;;;2.47;1.20;;;;;;;7.25;61.92;101239.56;5082169;28;20028;-62
2023/01/02 08:14:53;;;;;;;2.42;1.25;;;;;;;7.24;62.12;101227.25;5090930;28;20450;-62
2023/01/02 08:17:19;;;;;;;2.15;1.42;;;;;;;6.57;65.36;101215.22;5077837;28;20029;-62
2023/01/02 08:19:46;;;;;;;3.38;2.17;;;;;;;6.15;67.05;101198.69;5084594;28;20028;-62
2023/01/02 08:22:12;;;;;;;2.08;1.33;;;;;;;5.95;68.16;101191.06;5091646;28;20118;-62
2023/01/02 08:24:38;;;;;;;2.80;1.45;;;;;;;6.28;66.49;101186.53;5091624;28;20437;-62
2023/01/02 08:27:05;;;;;;;10.15;1.75;;;;;;;6.68;65.48;101182.09;5091528;28;20442;-62
2023/01/02 08:29:31;;;;;;;4.28;1.70;;;;;;;6.71;65.06;101173.75;5077753;28;20078;-62
2023/01/02 08:31:58;;;;;;;3.25;1.42;;;;;;;6.80;64.54;101172.75;5071435;28;20025;-62
2023/01/02 08:34:24;;;;;;;2.22;1.20;;;;;;;6.87;64.31;101184.34;5071502;28;20550;-62
2023/01/02 08:36:51;;;;;;;1.35;1.10;;;;;;;6.92;63.94;101194.47;5076229;28;20501;-62
2023/01/02 08:39:17;;;;;;;2.40;1.13;;;;;;;7.11;63.69;101196.72;5072299;28;20081;-62
2023/01/02 08:41:44;;;;;;;3.13;1.15;;;;;;;7.09;63.69;101206.69;5071910;28;20043;-62
2023/01/02 08:44:10;;;;;;;2.30;1.70;;;;;;;7.32;62.99;101211.22;5071799;28;20060;-62
2023/01/02 08:46:36;;;;;;;12.43;9.15;;;;;;;6.99;63.64;101211.38;5071605;28;20468;-62
2023/01/02 08:49:03;;;;;;;8.73;5.78;;;;;;;6.95;63.66;101215.41;5071902;28;20060;-62
2023/01/02 08:51:29;;;;;;;6.18;4.70;;;;;;;7.00;63.57;101217.56;5071741;28;20048;-63
2023/01/02 08:53:55;;;;;;;4.20;3.28;;;;;;;6.92;63.95;101209.59;5071699;28;20050;-62
2023/01/02 08:56:27;;;;;;;5.93;3.30;;;;;;;7.32;63.48;101203.22;5071536;28;20495;-62
2023/01/02 08:59:00;;;;;;;8.80;5.30;;;;;;;7.02;63.84;101199.59;5071668;28;20024;-62
2023/01/02 09:01:29;;;;;;;17.42;11.43;;;;;;;6.40;66.50;101179.03;5071601;28;20036;-62
2023/01/02 09:03:56;;;;;;;15.80;9.43;;;;;;;5.90;68.98;101160.66;5071676;28;20036;-62
2023/01/02 09:06:24;;;;;;;25.13;13.88;;;;;;;6.48;67.45;101165.69;5071266;28;20046;-62
2023/01/02 09:08:54;;;;;;;11.05;5.75;;;;;;;6.60;66.57;101177.63;5071692;28;20028;-62
2023/01/02 09:11:24;;;;;;;4.82;2.95;;;;;;;6.65;66.56;101189.59;5069689;28;20393;-62
2023/01/02 09:13:51;;;;;;;4.28;2.53;;;;;;;6.58;66.72;101211.56;5083232;28;20020;-62
2023/01/02 09:16:17;;;;;;;2.90;2.10;;;;;;;6.60;66.96;101214.84;5083768;28;20025;-62
2023/01/02 09:18:43;;;;;;;4.90;3.70;;;;;;;6.55;66.65;101209.25;5075000;28;20032;-62
2023/01/02 09:21:10;;;;;;;7.13;4.25;;;;;;;6.53;66.90;101215.72;5091149;28;20107;-62
2023/01/02 09:23:36;;;;;;;7.15;4.13;;;;;;;6.49;67.12;101222.38;5094668;28;20058;-62
2023/01/02 09:26:05;;;;;;;4.22;2.78;;;;;;;6.52;67.25;101216.72;5094429;28;20043;-62
2023/01/02 09:28:33;;;;;;;3.05;2.00;;;;;;;6.35;67.99;101215.94;5084711;28;20454;-62
2023/01/02 09:31:03;;;;;;;3.47;1.80;;;;;;;6.34;68.02;101211.63;5095222;28;20024;-62
2023/01/02 09:33:29;;;;;;;2.17;1.35;;;;;;;6.57;67.19;101201.09;5094757;28;20377;-62
2023/01/02 09:35:55;;;;;;;3.17;0.98;;;;;;;6.55;66.32;101193.28;5094026;28;20489;-62
2023/01/02 09:38:21;;;;;;;2.92;0.60;;;;;;;6.38;66.70;101190.81;5088468;28;20087;-62
2023/01/02 09:40:52;;;;;;;1.63;0.68;;;;;;;6.40;66.57;101172.88;5090042;28;20027;-62
2023/01/02 09:43:39;;;;;;;1.05;0.40;;;;;;;6.44;64.28;101153.78;5085823;28;20024;-62
2023/01/02 09:46:11;;;;;;;0.73;0.40;;;;;;;6.39;64.54;101123.38;5094695;28;20055;-62
2023/01/02 09:48:38;;;;;;;0.85;0.32;;;;;;;6.49;64.33;101123.97;5094877;28;20384;-59
2023/01/02 09:51:05;;;;;;;1.00;0.47;;;;;;;6.79;62.60;101130.34;5094859;28;20445;-61
2023/01/02 09:53:33;;;;;;;1.58;0.30;;;;;;;6.83;62.17;101121.03;5094945;28;20388;-62
2023/01/02 09:56:38;;;;;;;1.40;0.60;;;;;;;6.64;63.48;101116.94;5094418;28;20036;-61
2023/01/02 09:59:25;;;;;;;1.45;0.75;;;;;;;6.59;64.53;101096.19;5088263;28;20066;-62
2023/01/02 10:02:12;;;;;;;2.03;0.95;;;;;;;6.69;64.99;101103.13;5094731;28;20519;-61
2023/01/02 10:05:05;;;;;;;1.70;1.10;;;;;;;6.85;65.39;101119.84;5094645;28;20056;-62
2023/01/02 10:07:45;;;;;;;1.90;1.08;;;;;;;6.86;64.75;101133.97;5094556;28;20058;-62
2023/01/02 10:10:28;;;;;;;1.10;0.68;;;;;;;6.80;65.38;101137.31;5084625;28;20028;-62
2023/01/02 10:13:15;;;;;;;1.50;0.65;;;;;;;6.81;65.16;101138.97;5073679;28;20493;-62
2023/01/02 10:15:45;;;;;;;1.00;0.80;;;;;;;6.95;65.03;101122.28;5073609;28;20480;-61
2023/01/02 10:18:19;;;;;;;0.70;0.70;;;;;;;6.70;65.60;101116.25;5073951;28;20508;-62
2023/01/02 10:21:00;;;;;;;2.83;0.55;;;;;;;6.75;65.59;101107.75;5073944;28;20525;-62
2023/01/02 10:23:33;;;;;;;1.50;0.77;;;;;;;6.76;65.99;101114.72;5073491;28;20021;-62
2023/01/02 10:26:06;;;;;;;0.88;0.60;;;;;;;6.88;65.64;101142.59;5073230;28;20051;-62
2023/01/02 10:28:57;;;;;;;0.60;0.60;;;;;;;6.86;65.77;101155.25;5073438;28;20472;-62
2023/01/02 10:31:23;;;;;;;1.55;0.75;;;;;;;6.80;66.28;101163.94;5079436;28;20031;-62
2023/01/02 10:33:59;;;;;;;1.63;0.80;;;;;;;6.67;66.71;101153.84;5094017;28;20503;-61
2023/01/02 10:36:27;;;;;;;1.08;0.60;;;;;;;6.72;66.67;101153.31;5081300;28;20020;-61
2023/01/02 10:39:11;;;;;;;2.40;0.90;;;;;;;6.61;67.18;101173.97;5086339;28;20032;-62
2023/01/02 10:41:39;;;;;;;1.60;0.63;;;;;;;6.61;67.45;101150.03;5080859;28;20061;-62
2023/01/02 10:44:14;;;;;;;2.83;0.77;;;;;;;6.38;68.42;101148.28;5077936;28;20039;-62
2023/01/02 10:46:41;;;;;;;1.20;0.80;;;;;;;6.22;69.05;101159.78;5093511;28;20468;-62
2023/01/02 10:49:09;;;;;;;0.70;0.70;;;;;;;6.50;68.03;101168.22;5093381;28;20040;-62
2023/01/02 10:51:41;;;;;;;1.20;0.80;;;;;;;6.58;67.79;101184.97;5093446;28;20020;-61
2023/01/02 10:54:09;;;;;;;0.60;0.60;;;;;;;6.62;67.70;101196.09;5093210;28;20028;-62
2023/01/02 10:56:38;;;;;;;1.10;0.88;;;;;;;6.78;67.34;101200.53;5093271;28;20396;-62
2023/01/02 10:59:22;;;;;;;3.67;2.20;;;;;;;6.97;66.59;101197.44;5093489;28;20384;-62
2023/01/02 11:01:54;;;;;;;3.10;2.35;;;;;;;6.87;67.27;101196.81;5093646;28;20028;-61
2023/01/02 11:04:24;;;;;;;2.05;1.20;;;;;;;6.86;66.96;101198.66;5093311;28;20495;-62
2023/01/02 11:06:59;;;;;;;1.60;1.13;;;;;;;6.92;66.48;101186.47;5093351;28;20153;-61
2023/01/02 11:09:32;;;;;;;0.95;0.77;;;;;;;6.84;66.67;101183.88;5093335;28;20024;-62
2023/01/02 11:12:08;;;;;;;2.72;0.98;;;;;;;6.54;67.07;101180.97;5078180;28;20050;-62
2023/01/02 11:14:36;;;;;;;2.47;0.90;;;;;;;6.25;68.06;101164.78;5089156;28;20468;-62
2023/01/02 11:17:25;;;;;;;1.02;0.90;;;;;;;6.43;67.78;101173.34;5086873;28;20560;-62
2023/01/02 11:19:55;;;;;;;1.65;1.17;;;;;;;6.68;66.57;101158.16;5072703;28;20477;-61
2023/01/02 11:22:31;;;;;;;1.45;1.00;;;;;;;6.25;69.00;101167.44;5072690;28;20024;-61
2023/01/02 11:25:03;;;;;;;2.15;0.90;;;;;;;6.21;69.02;101171.41;5072047;28;20114;-62
2023/01/02 11:27:35;;;;;;;2.05;0.90;;;;;;;6.34;68.50;101174.41;5072594;28;20492;-62
2023/01/02 11:30:03;;;;;;;1.35;0.90;;;;;;;6.33;68.57;101170.91;5070859;28;20025;-59
2023/01/02 11:32:38;;;;;;;1.00;0.82;;;;;;;6.39;68.24;101184.53;5072386;28;20107;-59
2023/01/02 11:35:25;;;;;;;1.30;0.70;;;;;;;6.41;68.27;101195.81;5071508;28;20024;-59
2023/01/02 11:37:51;;;;;;;1.02;0.80;;;;;;;6.42;68.35;101182.34;5073753;28;20137;-62
2023/01/02 11:40:27;;;;;;;1.25;0.95;;;;;;;6.46;68.04;101173.03;5072266;28;20025;-62
2023/01/02 11:45:40;;;;;;;1.65;0.98;;;;;;;5.96;68.85;101155.53;5072459;28;20070;-61
2023/01/02 11:48:16;;;;;;;2.65;0.82;;;;;;;6.00;68.28;101153.38;5072414;28;20021;-62
2023/01/02 11:50:43;;;;;;;0.93;0.60;;;;;;;6.19;67.80;101165.47;5085952;28;20200;-61
2023/01/02 11:53:13;;;;;;;0.77;0.30;;;;;;;6.29;67.42;101158.13;5092771;28;20020;-62
2023/01/02 11:55:53;;;;;;;0.60;0.40;;;;;;;6.27;66.98;101152.13;5090474;28;20035;-61
2023/01/02 11:58:38;;;;;;;0.88;0.40;;;;;;;6.38;66.64;101164.22;5091884;28;20048;-61
2023/01/02 12:01:47;;;;;;;0.77;0.47;;;;;;;6.24;66.70;101160.47;5081579;28;20020;-62